Time;durP1;ratioP1;P1;durP2;ratioP2;P2;SDS_P1;SDS_P2;PMS_P1;PMS_P2;Temp;Humidity;BMP_temperature;BMP_pressure;BME280_temperature;BME280_humidity;BME280_pressure;Samples;Min_cycle;Max_cycle;Signal;HPM_P1;HPM_P2
2023/05/01 00:02:41;;;;;;;;;;;;;;;;;;10331257;28;773;-67
2023/05/01 00:07:38;;;;;;;;;;;;;;;;;;10330323;28;782;-67
2023/05/01 00:12:34;;;;;;;;;;;;;;;;;;10329035;28;944;-67
2023/05/01 00:17:30;;;;;;;;;;;;;;;;;;10330451;28;1975;-67
2023/05/01 00:22:27;;;;;;;;;;;;;;;;;;10329942;28;923;-67
2023/05/01 00:27:23;;;;;;;;;;;;;;;;;;10330808;28;907;-67
2023/05/01 00:32:19;;;;;;;;;;;;;;;;;;10330124;28;838;-67
2023/05/01 00:37:16;;;;;;;;;;;;;;;;;;10328989;28;1886;-67
2023/05/01 00:42:12;;;;;;;;;;;;;;;;;;10329516;28;775;-67
2023/05/01 00:47:08;;;;;;;;;;;;;;;;;;10329214;28;872;-67
2023/05/01 00:52:04;;;;;;;;;;;;;;;;;;10329153;28;947;-67
2023/05/01 00:57:00;;;;;;;;;;;;;;;;;;10328267;28;1953;-67
2023/05/01 01:01:56;;;;;;;;;;;;;;;;;;10328958;28;1230;-67
2023/05/01 01:06:52;;;;;;;;;;;;;;;;;;10328551;28;880;-67
2023/05/01 01:11:48;;;;;;;;;;;;;;;;;;10327603;28;1566;-67
2023/05/01 01:16:44;;;;;;;;;;;;;;;;;;10327399;28;1918;-67
2023/05/01 01:21:40;;;;;;;;;;;;;;;;;;10328586;28;948;-67
2023/05/01 01:26:35;;;;;;;;;;;;;;;;;;10326307;28;873;-67
2023/05/01 01:31:32;;;;;;;;;;;;;;;;;;10327715;28;947;-67
2023/05/01 01:36:28;;;;;;;;;;;;;;;;;;10326139;28;1906;-67
2023/05/01 01:41:24;;;;;;;;;;;;;;;;;;10326618;28;886;-67
2023/05/01 01:46:20;;;;;;;;;;;;;;;;;;10326992;28;850;-67
2023/05/01 01:51:15;;;;;;;;;;;;;;;;;;10326868;28;794;-67
2023/05/01 01:56:11;;;;;;;;;;;;;;;;;;10326407;28;1878;-67
2023/05/01 02:01:07;;;;;;;;;;;;;;;;;;10325463;28;1407;-67
2023/05/01 02:06:03;;;;;;;;;;;;;;;;;;10327152;28;920;-67
2023/05/01 02:10:59;;;;;;;;;;;;;;;;;;10325757;28;789;-67
2023/05/01 02:15:55;;;;;;;;;;;;;;;;;;10325700;28;936;-67
2023/05/01 02:20:51;;;;;;;;;;;;;;;;;;10325510;28;1898;-67
2023/05/01 02:25:47;;;;;;;;;;;;;;;;;;10325508;28;812;-67
2023/05/01 02:30:45;;;;;;;;;;;;;;;;;;10325928;28;936;-67
2023/05/01 02:35:42;;;;;;;;;;;;;;;;;;10326605;28;914;-67
2023/05/01 02:40:39;;;;;;;;;;;;;;;;;;10333642;28;1906;-67
2023/05/01 02:45:35;;;;;;;;;;;;;;;;;;10333412;28;881;-67
2023/05/01 02:50:31;;;;;;;;;;;;;;;;;;10333280;28;1512;-67
2023/05/01 02:55:26;;;;;;;;;;;;;;;;;;10333640;28;1140;-67
2023/05/01 03:00:22;;;;;;;;;;;;;;;;;;10333319;28;1932;-67
2023/05/01 03:05:18;;;;;;;;;;;;;;;;;;10332637;28;921;-67
2023/05/01 03:10:14;;;;;;;;;;;;;;;;;;10332513;28;798;-67
2023/05/01 03:15:11;;;;;;;;;;;;;;;;;;10332305;28;777;-67
2023/05/01 03:20:08;;;;;;;;;;;;;;;;;;10332660;28;1977;-67
2023/05/01 03:25:04;;;;;;;;;;;;;;;;;;10332120;28;891;-67
2023/05/01 03:30:00;;;;;;;;;;;;;;;;;;10332428;28;956;-67
2023/05/01 03:34:55;;;;;;;;;;;;;;;;;;10332490;28;876;-67
2023/05/01 03:39:51;;;;;;;;;;;;;;;;;;10331812;28;1945;-67
2023/05/01 03:44:48;;;;;;;;;;;;;;;;;;10331699;28;845;-67
2023/05/01 03:49:44;;;;;;;;;;;;;;;;;;10331545;28;897;-67
2023/05/01 03:54:40;;;;;;;;;;;;;;;;;;10330400;28;1314;-67
2023/05/01 03:59:36;;;;;;;;;;;;;;;;;;10330624;28;1910;-67
2023/05/01 04:04:32;;;;;;;;;;;;;;;;;;10331135;28;794;-67
2023/05/01 04:09:31;;;;;;;;;;;;;;;;;;10330205;28;1003;-67
2023/05/01 04:14:27;;;;;;;;;;;;;;;;;;10330146;28;940;-67
2023/05/01 04:19:23;;;;;;;;;;;;;;;;;;10330387;28;1983;-67
2023/05/01 04:24:19;;;;;;;;;;;;;;;;;;10330355;28;892;-67
2023/05/01 04:29:15;;;;;;;;;;;;;;;;;;10329600;28;875;-67
2023/05/01 04:34:11;;;;;;;;;;;;;;;;;;10330013;28;775;-67
2023/05/01 04:39:07;;;;;;;;;;;;;;;;;;10329645;28;1961;-67
2023/05/01 04:44:03;;;;;;;;;;;;;;;;;;10329591;28;897;-67
2023/05/01 04:48:58;;;;;;;;;;;;;;;;;;10328759;28;885;-67
2023/05/01 04:53:54;;;;;;;;;;;;;;;;;;10328586;28;1031;-67
2023/05/01 04:58:50;;;;;;;;;;;;;;;;;;10327802;28;1890;-67
2023/05/01 05:03:46;;;;;;;;;;;;;;;;;;10328466;28;794;-66
2023/05/01 05:08:42;;;;;;;;;;;;;;;;;;10327928;28;805;-67
2023/05/01 05:13:38;;;;;;;;;;;;;;;;;;10327675;28;758;-67
2023/05/01 05:18:34;;;;;;;;;;;;;;;;;;10328040;28;1983;-67
2023/05/01 05:23:30;;;;;;;;;;;;;;;;;;10327288;28;909;-67
2023/05/01 05:28:26;;;;;;;;;;;;;;;;;;10327125;28;769;-66
2023/05/01 05:33:23;;;;;;;;;;;;;;;;;;10326949;28;897;-66
2023/05/01 05:38:19;;;;;;;;;;;;;;;;;;10326627;28;1882;-66
2023/05/01 05:43:15;;;;;;;;;;;;;;;;;;10326641;28;802;-66
2023/05/01 05:48:11;;;;;;;;;;;;;;;;;;10326488;28;772;-66
2023/05/01 05:53:08;;;;;;;;;;;;;;;;;;10326343;28;784;-67
2023/05/01 05:58:04;;;;;;;;;;;;;;;;;;10326287;28;1894;-67
2023/05/01 06:03:01;;;;;;;;;;;;;;;;;;10326614;28;916;-67
2023/05/01 06:07:57;;;;;;;;;;;;;;;;;;10326109;28;801;-67
2023/05/01 06:12:53;;;;;;;;;;;;;;;;;;10325064;28;892;-67
2023/05/01 06:17:48;;;;;;;;;;;;;;;;;;10326284;28;1968;-66
2023/05/01 06:22:45;;;;;;;;;;;;;;;;;;10325474;28;1125;-66
2023/05/01 06:27:41;;;;;;;;;;;;;;;;;;10325421;28;820;-66
2023/05/01 06:32:37;;;;;;;;;;;;;;;;;;10325349;28;924;-66
2023/05/01 06:37:33;;;;;;;;;;;;;;;;;;10322751;28;1882;-66
2023/05/01 06:42:29;;;;;;;;;;;;;;;;;;10325645;28;1396;-68
2023/05/01 06:47:25;;;;;;;;;;;;;;;;;;10324254;28;862;-67
2023/05/01 06:52:20;;;;;;;;;;;;;;;;;;10324381;28;853;-66
2023/05/01 06:57:16;;;;;;;;;;;;;;;;;;10324551;28;1882;-67
2023/05/01 07:02:12;;;;;;;;;;;;;;;;;;10324169;28;992;-67
2023/05/01 07:07:08;;;;;;;;;;;;;;;;;;10325494;28;836;-67
2023/05/01 07:12:04;;;;;;;;;;;;;;;;;;10325306;28;889;-67
2023/05/01 07:17:00;;;;;;;;;;;;;;;;;;10324896;28;1972;-67
2023/05/01 07:21:56;;;;;;;;;;;;;;;;;;10324909;28;1160;-67
2023/05/01 07:26:52;;;;;;;;;;;;;;;;;;10332673;28;826;-67
2023/05/01 07:31:48;;;;;;;;;;;;;;;;;;10331734;28;742;-67
2023/05/01 07:36:44;;;;;;;;;;;;;;;;;;10331469;28;1953;-67
2023/05/01 07:41:40;;;;;;;;;;;;;;;;;;10331918;28;884;-67
2023/05/01 07:46:36;;;;;;;;;;;;;;;;;;10331868;28;919;-67
2023/05/01 07:51:32;;;;;;;;;;;;;;;;;;10331005;28;829;-65
2023/05/01 07:56:28;;;;;;;;;;;;;;;;;;10330123;28;1886;-65
2023/05/01 08:01:24;;;;;;;;;;;;;;;;;;10331672;28;1310;-67
2023/05/01 08:06:20;;;;;;;;;;;;;;;;;;10330461;28;842;-67
2023/05/01 08:11:16;;;;;;;;;;;;;;;;;;10330868;28;763;-68
2023/05/01 08:16:12;;;;;;;;;;;;;;;;;;10329566;28;1980;-68
2023/05/01 08:21:07;;;;;;;;;;;;;;;;;;10329959;28;766;-68
2023/05/01 08:26:03;;;;;;;;;;;;;;;;;;10330211;28;861;-67
2023/05/01 08:30:59;;;;;;;;;;;;;;;;;;10330110;28;888;-67
2023/05/01 08:35:55;;;;;;;;;;;;;;;;;;10327928;28;987;-67
2023/05/01 08:40:55;;;;;;;;;;;;;;;;;;10329976;28;1882;-67
2023/05/01 08:45:51;;;;;;;;;;;;;;;;;;10329671;28;789;-67
2023/05/01 08:50:47;;;;;;;;;;;;;;;;;;10328172;28;830;-67
2023/05/01 08:55:43;;;;;;;;;;;;;;;;;;10329115;28;802;-67
2023/05/01 09:00:39;;;;;;;;;;;;;;;;;;10328559;28;1890;-67
2023/05/01 09:05:35;;;;;;;;;;;;;;;;;;10328047;28;988;-67
2023/05/01 09:10:31;;;;;;;;;;;;;;;;;;10328625;28;893;-67
2023/05/01 09:15:27;;;;;;;;;;;;;;;;;;10327650;28;874;-67
2023/05/01 09:20:22;;;;;;;;;;;;;;;;;;10327484;28;1907;-67
2023/05/01 09:25:18;;;;;;;;;;;;;;;;;;10328658;28;1018;-67
2023/05/01 09:30:14;;;;;;;;;;;;;;;;;;10327791;28;886;-66
2023/05/01 09:35:10;;;;;;;;;;;;;;;;;;10327080;28;888;-67
2023/05/01 09:40:06;;;;;;;;;;;;;;;;;;10326642;28;1890;-67
2023/05/01 09:45:02;;;;;;;;;;;;;;;;;;10326907;28;901;-67
2023/05/01 09:49:58;;;;;;;;;;;;;;;;;;10326997;28;1032;-67
2023/05/01 09:54:54;;;;;;;;;;;;;;;;;;10326413;28;912;-67
2023/05/01 09:59:50;;;;;;;;;;;;;;;;;;10325443;28;1949;-67
2023/05/01 10:04:46;;;;;;;;;;;;;;;;;;10326005;28;932;-66
2023/05/01 10:09:42;;;;;;;;;;;;;;;;;;10325904;28;935;-67
2023/05/01 10:14:38;;;;;;;;;;;;;;;;;;10325331;28;936;-71
2023/05/01 10:19:34;;;;;;;;;;;;;;;;;;10324986;28;1985;-66
2023/05/01 10:24:30;;;;;;;;;;;;;;;;;;10326821;28;833;-67
2023/05/01 10:29:26;;;;;;;;;;;;;;;;;;10326095;28;861;-67
2023/05/01 10:34:22;;;;;;;;;;;;;;;;;;10324680;28;860;-66
2023/05/01 10:39:18;;;;;;;;;;;;;;;;;;10325768;28;1886;-67
2023/05/01 10:44:13;;;;;;;;;;;;;;;;;;10325747;28;885;-67
2023/05/01 10:49:11;;;;;;;;;;;;;;;;;;10324488;28;891;-67
2023/05/01 10:54:07;;;;;;;;;;;;;;;;;;10325007;28;888;-67
2023/05/01 10:59:03;;;;;;;;;;;;;;;;;;10328736;28;1890;-67
2023/05/01 11:03:59;;;;;;;;;;;;;;;;;;10333556;28;792;-67
2023/05/01 11:08:55;;;;;;;;;;;;;;;;;;10333915;28;904;-66
2023/05/01 11:13:51;;;;;;;;;;;;;;;;;;10332418;28;853;-67
2023/05/01 11:18:48;;;;;;;;;;;;;;;;;;10331659;28;1910;-67
2023/05/01 11:23:43;;;;;;;;;;;;;;;;;;10332887;28;794;-67
2023/05/01 11:28:39;;;;;;;;;;;;;;;;;;10331974;28;899;-67
2023/05/01 11:33:35;;;;;;;;;;;;;;;;;;10331752;28;772;-67
2023/05/01 11:38:31;;;;;;;;;;;;;;;;;;10332051;28;1959;-67
2023/05/01 11:43:27;;;;;;;;;;;;;;;;;;10331387;28;939;-70
2023/05/01 11:48:23;;;;;;;;;;;;;;;;;;10331771;28;802;-67
2023/05/01 11:53:19;;;;;;;;;;;;;;;;;;10331020;28;889;-67
2023/05/01 11:58:15;;;;;;;;;;;;;;;;;;10331218;28;1882;-67
2023/05/01 12:03:11;;;;;;;;;;;;;;;;;;10330661;28;845;-67
2023/05/01 12:08:08;;;;;;;;;;;;;;;;;;10329671;28;892;-67
2023/05/01 12:13:04;;;;;;;;;;;;;;;;;;10330286;28;1112;-67
2023/05/01 12:18:00;;;;;;;;;;;;;;;;;;10330624;28;1914;-67
2023/05/01 12:22:56;;;;;;;;;;;;;;;;;;10329805;28;1009;-67
2023/05/01 12:27:52;;;;;;;;;;;;;;;;;;10330345;28;998;-67
2023/05/01 12:32:49;;;;;;;;;;;;;;;;;;10330135;28;869;-67
2023/05/01 12:37:45;;;;;;;;;;;;;;;;;;10328602;28;1890;-67
2023/05/01 12:42:41;;;;;;;;;;;;;;;;;;10329101;28;889;-67
2023/05/01 12:47:37;;;;;;;;;;;;;;;;;;10328870;28;879;-71
2023/05/01 12:52:33;;;;;;;;;;;;;;;;;;10328714;28;857;-71
2023/05/01 12:57:29;;;;;;;;;;;;;;;;;;10328575;28;1894;-67
2023/05/01 13:02:25;;;;;;;;;;;;;;;;;;10329318;28;858;-67
2023/05/01 13:07:21;;;;;;;;;;;;;;;;;;10328061;28;952;-67
2023/05/01 13:12:17;;;;;;;;;;;;;;;;;;10327818;28;822;-67
2023/05/01 13:17:12;;;;;;;;;;;;;;;;;;10328343;28;1918;-67
2023/05/01 13:22:08;;;;;;;;;;;;;;;;;;10327795;28;940;-68
2023/05/01 13:27:05;;;;;;;;;;;;;;;;;;10327954;28;937;-66
2023/05/01 13:32:01;;;;;;;;;;;;;;;;;;10327147;28;765;-67
2023/05/01 13:36:56;;;;;;;;;;;;;;;;;;10326893;28;1973;-67
2023/05/01 13:41:52;;;;;;;;;;;;;;;;;;10326778;28;928;-67
2023/05/01 13:46:48;;;;;;;;;;;;;;;;;;10326576;28;858;-67
2023/05/01 13:51:45;;;;;;;;;;;;;;;;;;10326494;28;882;-67
2023/05/01 13:56:41;;;;;;;;;;;;;;;;;;10326136;28;1951;-67
2023/05/01 14:01:37;;;;;;;;;;;;;;;;;;10327098;28;1118;-67
2023/05/01 14:06:34;;;;;;;;;;;;;;;;;;10326339;28;1117;-67
2023/05/01 14:11:30;;;;;;;;;;;;;;;;;;10325849;28;933;-67
2023/05/01 14:16:26;;;;;;;;;;;;;;;;;;10325640;28;1910;-67
2023/05/01 14:21:22;;;;;;;;;;;;;;;;;;10325759;28;778;-67
2023/05/01 14:26:18;;;;;;;;;;;;;;;;;;10325576;28;822;-67
2023/05/01 14:31:14;;;;;;;;;;;;;;;;;;10325529;28;877;-67
2023/05/01 14:36:10;;;;;;;;;;;;;;;;;;10325031;28;873;-67
2023/05/01 14:41:06;;;;;;;;;;;;;;;;;;10325217;28;1957;-67
2023/05/01 14:46:02;;;;;;;;;;;;;;;;;;10326041;28;838;-67
2023/05/01 14:50:58;;;;;;;;;;;;;;;;;;10325048;28;936;-67
2023/05/01 14:55:54;;;;;;;;;;;;;;;;;;10324895;28;897;-67
2023/05/01 15:00:50;;;;;;;;;;;;;;;;;;10324709;28;1886;-67
2023/05/01 15:05:45;;;;;;;;;;;;;;;;;;10325576;28;837;-68
2023/05/01 15:10:42;;;;;;;;;;;;;;;;;;10324390;28;1264;-67
2023/05/01 15:15:38;;;;;;;;;;;;;;;;;;10325245;28;840;-67
2023/05/01 15:20:34;;;;;;;;;;;;;;;;;;10324428;28;1910;-67
2023/05/01 15:25:31;;;;;;;;;;;;;;;;;;10323841;28;968;-67
2023/05/01 15:30:26;;;;;;;;;;;;;;;;;;10324209;28;948;-67
2023/05/01 15:35:22;;;;;;;;;;;;;;;;;;10325051;28;928;-66
2023/05/01 15:40:18;;;;;;;;;;;;;;;;;;10323710;28;1881;-66
2023/05/01 15:45:14;;;;;;;;;;;;;;;;;;10327485;28;844;-67
2023/05/01 15:50:10;;;;;;;;;;;;;;;;;;10331225;28;767;-67
2023/05/01 15:55:06;;;;;;;;;;;;;;;;;;10330970;28;834;-67
2023/05/01 16:00:03;;;;;;;;;;;;;;;;;;10330933;28;1953;-67
2023/05/01 16:04:59;;;;;;;;;;;;;;;;;;10330612;28;881;-67
2023/05/01 16:09:55;;;;;;;;;;;;;;;;;;10330496;28;798;-67
2023/05/01 16:14:51;;;;;;;;;;;;;;;;;;10330863;28;846;-67
2023/05/01 16:19:48;;;;;;;;;;;;;;;;;;10330177;28;2027;-67
2023/05/01 16:24:44;;;;;;;;;;;;;;;;;;10329735;28;992;-67
2023/05/01 16:29:39;;;;;;;;;;;;;;;;;;10330963;28;848;-67
2023/05/01 16:34:35;;;;;;;;;;;;;;;;;;10330118;28;864;-67
2023/05/01 16:39:31;;;;;;;;;;;;;;;;;;10329904;28;1894;-67
2023/05/01 16:44:27;;;;;;;;;;;;;;;;;;10328526;28;933;-67
2023/05/01 16:49:23;;;;;;;;;;;;;;;;;;10329713;28;868;-67
2023/05/01 16:54:19;;;;;;;;;;;;;;;;;;10327583;28;1009;-67
2023/05/01 16:59:15;;;;;;;;;;;;;;;;;;10328640;28;1957;-67
2023/05/01 17:04:11;;;;;;;;;;;;;;;;;;10328367;28;786;-67
2023/05/01 17:09:07;;;;;;;;;;;;;;;;;;10328708;28;858;-67
2023/05/01 17:14:03;;;;;;;;;;;;;;;;;;10327892;28;835;-67
2023/05/01 17:19:03;;;;;;;;;;;;;;;;;;10327643;28;1918;-67
2023/05/01 17:23:59;;;;;;;;;;;;;;;;;;10327441;28;861;-67
2023/05/01 17:28:54;;;;;;;;;;;;;;;;;;10326684;28;959;-67
2023/05/01 17:33:50;;;;;;;;;;;;;;;;;;10327280;28;764;-67
2023/05/01 17:38:46;;;;;;;;;;;;;;;;;;10326857;28;1894;-67
2023/05/01 17:43:43;;;;;;;;;;;;;;;;;;10326955;28;936;-67
2023/05/01 17:48:39;;;;;;;;;;;;;;;;;;10326537;28;1195;-67
2023/05/01 17:53:36;;;;;;;;;;;;;;;;;;10327019;28;802;-67
2023/05/01 17:58:32;;;;;;;;;;;;;;;;;;10325764;28;1945;-67
2023/05/01 18:03:27;;;;;;;;;;;;;;;;;;10325948;28;849;-67
2023/05/01 18:08:23;;;;;;;;;;;;;;;;;;10326522;28;895;-67
2023/05/01 18:13:26;;;;;;;;;;;;;;;;;;10325782;28;846;-67
2023/05/01 18:18:22;;;;;;;;;;;;;;;;;;10325612;28;1906;-67
2023/05/01 18:23:18;;;;;;;;;;;;;;;;;;10325502;28;921;-67
2023/05/01 18:28:15;;;;;;;;;;;;;;;;;;10326303;28;877;-67
2023/05/01 18:33:11;;;;;;;;;;;;;;;;;;10325273;28;849;-67
2023/05/01 18:38:07;;;;;;;;;;;;;;;;;;10326312;28;1889;-67
2023/05/01 18:43:03;;;;;;;;;;;;;;;;;;10325243;28;785;-67
2023/05/01 18:47:59;;;;;;;;;;;;;;;;;;10325158;28;790;-67
2023/05/01 18:52:55;;;;;;;;;;;;;;;;;;10325677;28;854;-67
2023/05/01 18:57:51;;;;;;;;;;;;;;;;;;10324995;28;1949;-67
2023/05/01 19:02:50;;;;;;;;;;;;;;;;;;10324877;28;778;-67
2023/05/01 19:07:46;;;;;;;;;;;;;;;;;;10324917;28;829;-67
2023/05/01 19:12:42;;;;;;;;;;;;;;;;;;10325279;28;866;-67
2023/05/01 19:17:38;;;;;;;;;;;;;;;;;;10324751;28;1914;-67
2023/05/01 19:22:33;;;;;;;;;;;;;;;;;;10333649;28;849;-67
2023/05/01 19:27:30;;;;;;;;;;;;;;;;;;10332071;28;829;-67
2023/05/01 19:32:27;;;;;;;;;;;;;;;;;;10331867;28;1594;-67
2023/05/01 19:37:22;;;;;;;;;;;;;;;;;;10331573;28;1894;-67
2023/05/01 19:42:18;;;;;;;;;;;;;;;;;;10331450;28;993;-67
2023/05/01 19:47:14;;;;;;;;;;;;;;;;;;10331938;28;975;-67
2023/05/01 19:52:10;;;;;;;;;;;;;;;;;;10331758;28;861;-67
2023/05/01 19:57:06;;;;;;;;;;;;;;;;;;10330238;28;1953;-67
2023/05/01 20:02:03;;;;;;;;;;;;;;;;;;10332068;28;1209;-67
2023/05/01 20:07:01;;;;;;;;;;;;;;;;;;10331130;28;794;-67
2023/05/01 20:11:57;;;;;;;;;;;;;;;;;;10331050;28;846;-67
2023/05/01 20:16:52;;;;;;;;;;;;;;;;;;10330193;28;1914;-67
2023/05/01 20:21:48;;;;;;;;;;;;;;;;;;10331328;28;829;-67
2023/05/01 20:26:44;;;;;;;;;;;;;;;;;;10329870;28;798;-67
2023/05/01 20:31:40;;;;;;;;;;;;;;;;;;10328563;28;774;-67
2023/05/01 20:36:36;;;;;;;;;;;;;;;;;;10329569;28;889;-67
2023/05/01 20:41:32;;;;;;;;;;;;;;;;;;10329348;28;1060;-67
2023/05/01 20:46:28;;;;;;;;;;;;;;;;;;10329148;28;738;-67
2023/05/01 20:51:26;;;;;;;;;;;;;;;;;;10328931;28;853;-67
2023/05/01 20:56:22;;;;;;;;;;;;;;;;;;10328749;28;742;-66
2023/05/01 21:01:18;;;;;;;;;;;;;;;;;;10329474;28;1941;-70
2023/05/01 21:06:14;;;;;;;;;;;;;;;;;;10328318;28;837;-71
2023/05/01 21:11:10;;;;;;;;;;;;;;;;;;10328116;28;859;-71
2023/05/01 21:16:06;;;;;;;;;;;;;;;;;;10327314;28;829;-71
2023/05/01 21:21:02;;;;;;;;;;;;;;;;;;10328409;28;1901;-71
2023/05/01 21:25:58;;;;;;;;;;;;;;;;;;10328728;28;996;-71
2023/05/01 21:30:54;;;;;;;;;;;;;;;;;;10327913;28;880;-71
2023/05/01 21:35:50;;;;;;;;;;;;;;;;;;10327023;28;858;-71
2023/05/01 21:40:46;;;;;;;;;;;;;;;;;;10326547;28;1968;-71
2023/05/01 21:45:42;;;;;;;;;;;;;;;;;;10326859;28;821;-71
2023/05/01 21:50:37;;;;;;;;;;;;;;;;;;10327196;28;873;-71
2023/05/01 21:55:33;;;;;;;;;;;;;;;;;;10327638;28;814;-71
2023/05/01 22:00:30;;;;;;;;;;;;;;;;;;10326118;28;1894;-71
2023/05/01 22:05:29;;;;;;;;;;;;;;;;;;10326779;28;801;-71
2023/05/01 22:10:25;;;;;;;;;;;;;;;;;;10325928;28;964;-71
2023/05/01 22:15:21;;;;;;;;;;;;;;;;;;10325941;28;908;-71
2023/05/01 22:20:17;;;;;;;;;;;;;;;;;;10325885;28;1906;-71
2023/05/01 22:25:13;;;;;;;;;;;;;;;;;;10325594;28;846;-71
2023/05/01 22:30:09;;;;;;;;;;;;;;;;;;10326066;28;940;-71
2023/05/01 22:35:07;;;;;;;;;;;;;;;;;;10326443;28;840;-71
2023/05/01 22:40:03;;;;;;;;;;;;;;;;;;10325232;28;1933;-71
2023/05/01 22:44:58;;;;;;;;;;;;;;;;;;10324688;28;870;-71
2023/05/01 22:49:54;;;;;;;;;;;;;;;;;;10324562;28;913;-71
2023/05/01 22:54:51;;;;;;;;;;;;;;;;;;10329335;28;937;-71
2023/05/01 22:59:47;;;;;;;;;;;;;;;;;;10333466;28;1890;-71
2023/05/01 23:04:43;;;;;;;;;;;;;;;;;;10332505;28;944;-71
2023/05/01 23:09:39;;;;;;;;;;;;;;;;;;10333962;28;853;-71
2023/05/01 23:14:35;;;;;;;;;;;;;;;;;;10332619;28;829;-71
2023/05/01 23:19:31;;;;;;;;;;;;;;;;;;10332989;28;1977;-71
2023/05/01 23:24:27;;;;;;;;;;;;;;;;;;10332787;28;897;-71
2023/05/01 23:29:22;;;;;;;;;;;;;;;;;;10332068;28;890;-71
2023/05/01 23:34:18;;;;;;;;;;;;;;;;;;10331878;28;928;-71
2023/05/01 23:39:15;;;;;;;;;;;;;;;;;;10331693;28;1945;-71
2023/05/01 23:44:10;;;;;;;;;;;;;;;;;;10332037;28;837;-71
2023/05/01 23:49:06;;;;;;;;;;;;;;;;;;10331332;28;856;-71
2023/05/01 23:54:03;;;;;;;;;;;;;;;;;;10331819;28;778;-71
2023/05/01 23:58:59;;;;;;;;;;;;;;;;;;10331041;28;1886;-71
